createdAt,value
2023-05-05T00:00:16.002Z,19.23
2023-05-05T00:01:17.981Z,18.79
2023-05-05T00:02:19.977Z,19.19
2023-05-05T00:03:22.437Z,18.78
2023-05-05T00:04:24.365Z,19.25
2023-05-05T00:05:26.198Z,18.96
2023-05-05T00:06:31.578Z,19.08
2023-05-05T00:07:33.427Z,18.86
2023-05-05T00:08:35.237Z,19.30
2023-05-05T00:09:37.074Z,19.00
2023-05-05T00:10:38.840Z,18.84
2023-05-05T00:11:40.618Z,18.93
2023-05-05T00:12:42.572Z,18.97
2023-05-05T00:13:44.355Z,19.22
2023-05-05T00:14:46.153Z,19.33
2023-05-05T00:15:50.038Z,19.00
2023-05-05T00:16:52.495Z,19.06
2023-05-05T00:17:54.377Z,18.92
2023-05-05T00:18:56.578Z,18.91
2023-05-05T00:19:59.756Z,19.05
2023-05-05T00:21:01.794Z,18.82
2023-05-05T00:22:03.588Z,18.82
2023-05-05T00:23:05.440Z,18.88
2023-05-05T00:24:07.344Z,18.85
2023-05-05T00:25:09.555Z,18.99
2023-05-05T00:26:11.376Z,19.15
2023-05-05T00:27:13.503Z,19.31
2023-05-05T00:28:15.367Z,19.11
2023-05-05T00:29:17.148Z,19.14
2023-05-05T00:30:19.120Z,19.09
2023-05-05T00:31:21.383Z,19.24
2023-05-05T00:32:23.271Z,18.96
2023-05-05T00:33:25.814Z,19.39
2023-05-05T00:34:27.599Z,18.95
2023-05-05T00:35:29.474Z,18.92
2023-05-05T00:36:31.311Z,18.90
2023-05-05T00:37:33.123Z,19.15
2023-05-05T00:38:35.130Z,18.90
2023-05-05T00:39:36.955Z,19.22
2023-05-05T00:40:38.736Z,19.00
2023-05-05T00:41:40.924Z,19.06
2023-05-05T00:42:47.332Z,19.37
2023-05-05T00:43:49.191Z,19.28
2023-05-05T00:44:51.093Z,19.11
2023-05-05T00:46:02.414Z,18.97
2023-05-05T00:47:04.956Z,19.23
2023-05-05T00:48:07.355Z,19.37
2023-05-05T00:49:10.114Z,19.00
2023-05-05T00:50:21.764Z,19.29
2023-05-05T00:51:25.666Z,19.02
2023-05-05T00:52:27.470Z,19.20
2023-05-05T00:53:29.384Z,19.36
2023-05-05T00:54:31.258Z,19.01
2023-05-05T00:55:34.854Z,19.25
2023-05-05T00:56:37.524Z,19.38
2023-05-05T00:57:39.753Z,19.17
2023-05-05T00:58:44.660Z,19.37
2023-05-05T00:59:46.984Z,19.12
2023-05-05T01:00:48.929Z,19.24
2023-05-05T01:01:50.951Z,19.39
2023-05-05T01:02:52.952Z,18.73
2023-05-05T01:03:55.630Z,18.99
2023-05-05T01:04:58.498Z,19.32
2023-05-05T01:06:10.433Z,19.06
2023-05-05T01:07:39.840Z,18.94
2023-05-05T01:08:47.266Z,18.67
2023-05-05T01:10:15.669Z,19.08
2023-05-05T01:11:32.463Z,19.07
2023-05-05T01:12:46.571Z,19.11
2023-05-05T01:13:58.910Z,19.23
2023-05-05T01:15:21.977Z,19.02
2023-05-05T01:16:33.241Z,19.09
2023-05-05T01:18:16.389Z,18.96
2023-05-05T01:19:33.373Z,19.49
2023-05-05T01:20:58.845Z,19.02
2023-05-05T01:22:04.774Z,19.29
2023-05-05T01:23:09.990Z,18.97
2023-05-05T01:25:03.890Z,19.26
2023-05-05T01:26:24.629Z,19.09
2023-05-05T01:27:38.644Z,18.78
2023-05-05T01:29:15.217Z,19.19
2023-05-05T01:30:57.839Z,19.32
2023-05-05T01:32:12.947Z,19.11
2023-05-05T01:33:20.380Z,19.21
2023-05-05T01:34:27.927Z,19.46
2023-05-05T01:35:41.853Z,19.11
2023-05-05T01:36:53.238Z,19.40
2023-05-05T01:38:19.391Z,19.29
2023-05-05T01:39:26.472Z,19.05
2023-05-05T01:40:32.012Z,19.38
2023-05-05T01:41:41.218Z,19.24
2023-05-05T01:42:44.576Z,19.01
2023-05-05T01:43:50.435Z,19.15
2023-05-05T01:44:54.182Z,19.39
2023-05-05T01:45:57.179Z,19.13
2023-05-05T01:47:01.355Z,19.39
2023-05-05T01:48:06.650Z,19.43
2023-05-05T01:49:11.685Z,19.00
2023-05-05T01:50:16.137Z,19.39
2023-05-05T01:51:19.301Z,19.23
2023-05-05T01:52:22.471Z,19.35
2023-05-05T01:53:25.787Z,19.17
2023-05-05T01:54:28.953Z,19.22
2023-05-05T01:55:32.438Z,19.21
2023-05-05T01:56:36.188Z,19.22
2023-05-05T01:57:41.480Z,19.50
2023-05-05T01:58:46.110Z,19.29
2023-05-05T01:59:51.758Z,19.27
2023-05-05T02:00:55.437Z,19.17
2023-05-05T02:02:00.269Z,19.49
2023-05-05T02:03:04.958Z,19.36
2023-05-05T02:04:09.765Z,19.04
2023-05-05T02:05:13.209Z,19.46
2023-05-05T02:06:16.559Z,19.52
2023-05-05T02:07:19.859Z,19.04
2023-05-05T02:08:22.848Z,19.33
2023-05-05T02:09:27.391Z,19.45
2023-05-05T02:10:30.428Z,19.19
2023-05-05T02:11:32.731Z,19.50
2023-05-05T02:12:37.422Z,19.29
2023-05-05T02:13:42.824Z,19.35
2023-05-05T02:14:51.297Z,19.02
2023-05-05T02:15:54.921Z,19.44
2023-05-05T02:16:58.263Z,19.22
2023-05-05T02:18:02.104Z,19.07
2023-05-05T02:19:05.193Z,18.97
2023-05-05T02:20:09.617Z,19.20
2023-05-05T02:21:11.825Z,19.22
2023-05-05T02:22:16.555Z,19.22
2023-05-05T02:23:18.506Z,19.28
2023-05-05T02:24:20.602Z,19.51
2023-05-05T02:25:25.635Z,19.27
2023-05-05T02:26:30.323Z,19.26
2023-05-05T02:27:35.062Z,19.12
2023-05-05T02:28:48.208Z,19.17
2023-05-05T02:29:58.684Z,19.38
2023-05-05T02:31:01.393Z,19.32
2023-05-05T02:32:16.280Z,19.20
2023-05-05T02:33:22.075Z,19.06
2023-05-05T02:34:27.558Z,19.38
2023-05-05T02:35:42.934Z,19.13
2023-05-05T02:36:52.740Z,19.27
2023-05-05T02:38:02.840Z,19.09
2023-05-05T02:39:14.746Z,19.47
2023-05-05T02:40:24.531Z,19.17
2023-05-05T02:41:29.145Z,19.22
2023-05-05T02:42:36.573Z,19.17
2023-05-05T02:43:42.634Z,19.38
2023-05-05T02:44:46.008Z,19.10
2023-05-05T02:45:48.322Z,19.53
2023-05-05T02:46:51.699Z,19.56
2023-05-05T02:47:53.653Z,19.24
2023-05-05T02:48:59.731Z,19.17
2023-05-05T02:50:02.870Z,19.47
2023-05-05T02:51:06.782Z,19.36
2023-05-05T02:52:11.286Z,19.52
2023-05-05T02:53:14.984Z,19.20
2023-05-05T02:54:17.719Z,19.21
2023-05-05T02:55:19.760Z,19.52
2023-05-05T02:56:46.237Z,19.51
2023-05-05T02:57:53.794Z,18.87
2023-05-05T02:59:14.531Z,19.60
2023-05-05T03:00:31.697Z,19.06
2023-05-05T03:01:57.353Z,18.88
2023-05-05T03:03:16.462Z,19.35
2023-05-05T03:04:25.844Z,19.19
2023-05-05T03:05:42.714Z,19.30
2023-05-05T03:06:50.153Z,19.57
2023-05-05T03:08:10.129Z,19.25
2023-05-05T03:09:25.901Z,19.10
2023-05-05T03:10:32.205Z,19.60
2023-05-05T03:12:15.625Z,19.35
2023-05-05T03:13:28.523Z,19.11
2023-05-05T03:14:41.044Z,19.38
2023-05-05T03:15:48.465Z,19.46
2023-05-05T03:16:55.391Z,19.48
2023-05-05T03:17:59.560Z,19.35
2023-05-05T03:19:04.716Z,19.60
2023-05-05T03:20:08.848Z,19.45
2023-05-05T03:21:15.030Z,19.46
2023-05-05T03:22:17.998Z,19.33
2023-05-05T03:23:22.967Z,19.38
2023-05-05T03:24:30.630Z,19.65
2023-05-05T03:25:49.215Z,19.50
2023-05-05T03:27:03.201Z,19.52
2023-05-05T03:28:09.741Z,19.48
2023-05-05T03:29:12.764Z,19.34
2023-05-05T03:30:15.351Z,19.66
2023-05-05T03:31:23.461Z,19.44
2023-05-05T03:32:30.965Z,19.72
2023-05-05T03:33:32.778Z,19.40
2023-05-05T03:34:37.401Z,19.67
2023-05-05T03:35:40.885Z,19.41
2023-05-05T03:36:45.671Z,19.38
2023-05-05T03:37:50.100Z,19.61
2023-05-05T03:38:53.424Z,19.40
2023-05-05T03:39:56.179Z,19.70
2023-05-05T03:41:01.597Z,19.67
2023-05-05T03:42:03.550Z,19.59
2023-05-05T03:43:08.098Z,19.71
2023-05-05T03:44:10.563Z,19.54
2023-05-05T03:45:13.096Z,19.48
2023-05-05T03:46:16.312Z,19.38
2023-05-05T03:47:18.781Z,19.94
2023-05-05T03:48:20.731Z,19.68
2023-05-05T03:49:24.389Z,19.63
2023-05-05T03:50:27.140Z,19.67
2023-05-05T03:51:30.133Z,19.74
2023-05-05T03:52:33.900Z,19.81
2023-05-05T03:53:36.298Z,19.86
2023-05-05T03:54:42.591Z,19.47
2023-05-05T03:55:44.392Z,19.46
2023-05-05T03:56:46.699Z,19.90
2023-05-05T03:57:48.509Z,19.83
2023-05-05T03:58:50.330Z,19.59
2023-05-05T03:59:52.347Z,19.57
2023-05-05T04:00:54.157Z,19.41
2023-05-05T04:01:56.870Z,19.63
2023-05-05T04:02:59.011Z,19.87
2023-05-05T04:04:01.220Z,19.33
2023-05-05T04:05:03.112Z,19.89
2023-05-05T04:06:06.025Z,19.48
2023-05-05T04:07:08.484Z,19.71
2023-05-05T04:08:10.516Z,19.43
2023-05-05T04:09:12.414Z,19.74
2023-05-05T04:10:14.312Z,19.86
2023-05-05T04:11:16.241Z,19.81
2023-05-05T04:12:18.035Z,19.44
2023-05-05T04:13:20.592Z,19.71
2023-05-05T04:14:23.051Z,19.64
2023-05-05T04:15:25.334Z,19.49
2023-05-05T04:16:27.413Z,19.61
2023-05-05T04:17:29.745Z,19.98
2023-05-05T04:18:32.089Z,19.63
2023-05-05T04:19:34.251Z,19.68
2023-05-05T04:20:38.001Z,19.81
2023-05-05T04:21:39.860Z,20.07
2023-05-05T04:22:41.830Z,19.73
2023-05-05T04:23:44.316Z,19.85
2023-05-05T04:24:47.315Z,19.87
2023-05-05T04:25:49.344Z,19.79
2023-05-05T04:26:52.162Z,19.70
2023-05-05T04:27:54.808Z,19.53
2023-05-05T04:28:57.293Z,19.97
2023-05-05T04:29:59.143Z,19.60
2023-05-05T04:31:02.595Z,19.77
2023-05-05T04:32:06.579Z,19.71
2023-05-05T04:33:08.393Z,19.65
2023-05-05T04:34:10.648Z,19.74
2023-05-05T04:35:12.802Z,19.71
2023-05-05T04:36:14.700Z,19.73
2023-05-05T04:37:16.501Z,19.37
2023-05-05T04:38:20.725Z,19.56
2023-05-05T04:39:22.981Z,19.78
2023-05-05T04:40:26.354Z,19.59
2023-05-05T04:41:30.178Z,19.91
2023-05-05T04:42:32.830Z,19.78
2023-05-05T04:43:35.088Z,19.65
2023-05-05T04:44:37.751Z,19.57
2023-05-05T04:45:39.605Z,19.79
2023-05-05T04:46:41.986Z,19.67
2023-05-05T04:47:44.042Z,19.56
2023-05-05T04:48:46.214Z,19.75
2023-05-05T04:49:48.260Z,19.59
2023-05-05T04:50:50.207Z,19.69
2023-05-05T04:51:52.607Z,19.90
2023-05-05T04:52:54.457Z,19.78
2023-05-05T04:53:56.425Z,19.71
2023-05-05T04:54:58.270Z,19.65
2023-05-05T04:56:01.378Z,19.74
2023-05-05T04:57:04.108Z,19.75
2023-05-05T04:58:06.123Z,19.77
2023-05-05T04:59:08.009Z,19.97
2023-05-05T05:00:10.720Z,19.69
2023-05-05T05:01:12.898Z,19.94
2023-05-05T05:02:14.829Z,19.83
2023-05-05T05:03:16.979Z,19.64
2023-05-05T05:04:18.878Z,19.84
2023-05-05T05:05:21.657Z,19.71
2023-05-05T05:06:23.797Z,19.95
2023-05-05T05:07:26.199Z,19.69
2023-05-05T05:08:28.530Z,19.90
2023-05-05T05:09:30.460Z,19.99
2023-05-05T05:10:32.676Z,19.93
2023-05-05T05:11:34.617Z,19.70
2023-05-05T05:12:37.130Z,20.16
2023-05-05T05:13:39.003Z,20.04
2023-05-05T05:14:40.818Z,19.85
2023-05-05T05:15:42.873Z,19.88
2023-05-05T05:16:45.045Z,19.46
2023-05-05T05:17:46.962Z,19.71
2023-05-05T05:18:48.894Z,19.77
2023-05-05T05:19:50.716Z,19.93
2023-05-05T05:20:52.701Z,19.39
2023-05-05T05:21:54.679Z,19.28
2023-05-05T05:22:57.508Z,19.73
2023-05-05T05:23:59.745Z,19.50
2023-05-05T05:25:02.093Z,19.28
2023-05-05T05:26:05.284Z,19.15
2023-05-05T05:27:10.117Z,19.32
2023-05-05T05:28:14.713Z,19.42
2023-05-05T05:29:22.123Z,19.29
2023-05-05T05:30:24.096Z,19.23
2023-05-05T05:31:26.630Z,19.40
2023-05-05T05:32:29.255Z,19.25
2023-05-05T05:33:31.278Z,19.01
2023-05-05T05:34:34.374Z,19.04
2023-05-05T05:35:36.925Z,18.78
2023-05-05T05:36:39.174Z,18.88
2023-05-05T05:37:41.136Z,18.55
2023-05-05T05:38:43.041Z,18.84
2023-05-05T05:39:51.132Z,18.90
2023-05-05T05:40:54.558Z,18.91
2023-05-05T05:41:57.365Z,18.92
2023-05-05T05:42:59.906Z,18.81
2023-05-05T05:44:02.602Z,18.59
2023-05-05T05:45:05.432Z,18.64
2023-05-05T05:46:09.166Z,18.50
2023-05-05T05:47:13.122Z,18.55
2023-05-05T05:48:15.014Z,18.49
2023-05-05T05:49:17.709Z,18.56
2023-05-05T05:50:20.045Z,18.35
2023-05-05T05:51:22.037Z,18.23
2023-05-05T05:52:24.375Z,18.21
2023-05-05T05:53:26.377Z,18.19
2023-05-05T05:54:29.308Z,18.28
2023-05-05T05:55:31.382Z,18.40
2023-05-05T05:56:33.708Z,18.22
2023-05-05T05:57:35.573Z,18.16
2023-05-05T05:58:39.133Z,18.58
2023-05-05T05:59:41.080Z,18.19
2023-05-05T06:00:43.544Z,18.05
2023-05-05T06:01:46.541Z,18.36
2023-05-05T06:02:48.531Z,18.01
2023-05-05T06:03:53.845Z,18.36
2023-05-05T06:04:56.414Z,17.69
2023-05-05T06:05:59.267Z,17.65
2023-05-05T06:07:01.370Z,18.03
2023-05-05T06:08:03.269Z,18.25
2023-05-05T06:09:06.769Z,17.83
2023-05-05T06:10:25.609Z,17.83
2023-05-05T06:11:34.983Z,17.98
2023-05-05T06:12:36.936Z,17.70
2023-05-05T06:13:38.756Z,18.09
2023-05-05T06:14:41.348Z,18.10
2023-05-05T06:15:43.526Z,17.86
2023-05-05T06:16:47.481Z,17.69
2023-05-05T06:17:54.087Z,17.77
2023-05-05T06:18:57.292Z,18.05
2023-05-05T06:19:59.603Z,17.60
2023-05-05T06:21:02.623Z,17.82
2023-05-05T06:22:05.946Z,17.82
2023-05-05T06:23:08.416Z,17.77
2023-05-05T06:24:13.624Z,17.76
2023-05-05T06:25:16.683Z,17.87
2023-05-05T06:26:18.661Z,17.74
2023-05-05T06:27:20.527Z,17.99
2023-05-05T06:28:22.466Z,18.04
2023-05-05T06:29:24.221Z,18.01
2023-05-05T06:30:28.886Z,17.67
2023-05-05T06:31:30.834Z,18.03
2023-05-05T06:32:32.650Z,17.46
2023-05-05T06:33:34.493Z,17.91
2023-05-05T06:34:36.282Z,17.50
2023-05-05T06:35:38.274Z,17.45
2023-05-05T06:36:40.158Z,17.89
2023-05-05T06:37:42.050Z,17.65
2023-05-05T06:38:43.809Z,17.68
2023-05-05T06:39:45.709Z,17.80
2023-05-05T06:40:49.663Z,17.63
2023-05-05T06:41:51.425Z,17.86
2023-05-05T06:42:53.203Z,17.39
2023-05-05T06:44:01.130Z,17.50
2023-05-05T06:45:03.060Z,17.57
2023-05-05T06:46:05.044Z,17.82
2023-05-05T06:47:07.059Z,17.77
2023-05-05T06:48:09.091Z,17.82
2023-05-05T06:49:11.058Z,17.62
2023-05-05T06:50:12.913Z,17.98
2023-05-05T06:51:15.637Z,17.69
2023-05-05T06:52:17.473Z,17.02
2023-05-05T06:53:19.364Z,17.31
2023-05-05T06:54:21.123Z,17.58
2023-05-05T06:55:23.644Z,17.99
2023-05-05T06:56:25.545Z,17.15
2023-05-05T06:57:27.317Z,17.66
2023-05-05T06:58:29.191Z,17.59
2023-05-05T06:59:30.962Z,17.41
2023-05-05T07:00:32.830Z,17.21
2023-05-05T07:01:34.630Z,17.68
2023-05-05T07:02:36.515Z,17.15
2023-05-05T07:03:38.411Z,17.36
2023-05-05T07:04:41.477Z,17.41
2023-05-05T07:05:43.507Z,17.44
2023-05-05T07:06:45.300Z,17.48
2023-05-05T07:07:52.652Z,17.10
2023-05-05T07:08:54.519Z,17.30
2023-05-05T07:09:56.348Z,16.90
2023-05-05T07:10:58.161Z,17.01
2023-05-05T07:11:59.930Z,17.40
2023-05-05T07:13:01.854Z,17.04
2023-05-05T07:14:03.773Z,17.02
2023-05-05T07:15:19.221Z,17.33
2023-05-05T07:16:28.011Z,17.03
2023-05-05T07:17:29.856Z,17.01
2023-05-05T07:18:31.712Z,16.91
2023-05-05T07:19:33.632Z,17.20
2023-05-05T07:20:35.473Z,17.09
2023-05-05T07:21:37.242Z,16.98
2023-05-05T07:22:39.206Z,17.18
2023-05-05T07:23:41.067Z,16.60
2023-05-05T07:24:42.907Z,16.66
2023-05-05T07:25:44.700Z,16.90
2023-05-05T07:26:46.664Z,16.41
2023-05-05T07:27:48.460Z,16.36
2023-05-05T07:28:52.061Z,16.74
2023-05-05T07:29:53.870Z,16.06
2023-05-05T07:30:55.689Z,15.96
2023-05-05T07:31:57.536Z,16.63
2023-05-05T07:32:59.395Z,16.00
2023-05-05T07:34:01.336Z,16.02
2023-05-05T07:35:03.667Z,16.40
2023-05-05T07:36:05.860Z,16.14
2023-05-05T07:37:07.969Z,16.23
2023-05-05T07:38:10.898Z,15.91
2023-05-05T07:39:15.060Z,16.26
2023-05-05T07:40:16.868Z,15.79
2023-05-05T07:41:19.329Z,16.28
2023-05-05T07:42:21.372Z,16.07
2023-05-05T07:43:23.407Z,15.77
2023-05-05T07:44:25.705Z,16.22
2023-05-05T07:45:28.915Z,16.28
2023-05-05T07:46:30.784Z,15.96
2023-05-05T07:47:32.667Z,15.88
2023-05-05T07:48:34.718Z,15.65
2023-05-05T07:49:36.662Z,16.00
2023-05-05T07:50:39.647Z,15.72
2023-05-05T07:51:42.099Z,15.75
2023-05-05T07:52:48.319Z,16.12
2023-05-05T07:53:55.983Z,16.17
2023-05-05T07:54:57.794Z,16.16
2023-05-05T07:55:59.568Z,15.69
2023-05-05T07:57:02.154Z,16.03
2023-05-05T07:58:03.957Z,15.45
2023-05-05T07:59:05.934Z,15.97
2023-05-05T08:00:09.559Z,15.80
2023-05-05T08:01:14.311Z,15.99
2023-05-05T08:02:16.159Z,16.23
2023-05-05T08:03:20.222Z,16.20
2023-05-05T08:04:22.163Z,15.98
2023-05-05T08:05:23.979Z,15.87
2023-05-05T08:06:27.757Z,15.59
2023-05-05T08:07:29.532Z,15.52
2023-05-05T08:08:31.336Z,15.43
2023-05-05T08:09:33.219Z,15.99
2023-05-05T08:10:35.091Z,15.20
2023-05-05T08:11:36.949Z,15.34
2023-05-05T08:12:39.558Z,15.38
2023-05-05T08:13:43.056Z,15.48
2023-05-05T08:14:44.844Z,15.82
2023-05-05T08:15:46.935Z,15.49
2023-05-05T08:16:48.812Z,15.60
2023-05-05T08:17:53.364Z,15.56
2023-05-05T08:18:55.348Z,15.41
2023-05-05T08:19:57.188Z,15.30
2023-05-05T08:20:58.950Z,15.54
2023-05-05T08:22:01.651Z,15.46
2023-05-05T08:23:03.550Z,15.19
2023-05-05T08:24:05.627Z,15.50
2023-05-05T08:25:08.312Z,15.49
2023-05-05T08:26:10.340Z,15.32
2023-05-05T08:27:13.961Z,15.32
2023-05-05T08:28:15.785Z,15.28
2023-05-05T08:29:17.667Z,15.49
2023-05-05T08:30:21.474Z,15.64
2023-05-05T08:31:23.279Z,15.33
2023-05-05T08:32:25.535Z,15.36
2023-05-05T08:33:28.549Z,15.19
2023-05-05T08:34:30.548Z,15.70
2023-05-05T08:35:32.331Z,15.89
2023-05-05T08:36:34.124Z,15.14
2023-05-05T08:37:36.196Z,15.83
2023-05-05T08:38:38.032Z,15.18
2023-05-05T08:39:39.860Z,15.15
2023-05-05T08:40:41.838Z,15.31
2023-05-05T08:41:43.708Z,15.13
2023-05-05T08:42:46.494Z,15.64
2023-05-05T08:43:50.549Z,15.03
2023-05-05T08:44:53.058Z,15.38
2023-05-05T08:45:56.361Z,14.83
2023-05-05T08:47:00.326Z,15.41
2023-05-05T08:48:05.037Z,15.37
2023-05-05T08:49:13.971Z,15.43
2023-05-05T08:50:19.231Z,15.36
2023-05-05T08:51:22.024Z,15.33
2023-05-05T08:52:26.620Z,15.69
2023-05-05T08:53:56.092Z,14.99
2023-05-05T08:55:06.615Z,15.34
2023-05-05T08:56:09.104Z,15.40
2023-05-05T08:57:12.092Z,15.18
2023-05-05T08:58:15.541Z,15.33
2023-05-05T08:59:18.912Z,15.21
2023-05-05T09:00:21.331Z,15.19
2023-05-05T09:01:23.574Z,15.24
2023-05-05T09:02:29.926Z,15.09
2023-05-05T09:03:32.396Z,15.49
2023-05-05T09:04:34.981Z,15.16
2023-05-05T09:05:37.237Z,15.50
2023-05-05T09:06:39.172Z,15.35
2023-05-05T09:07:44.307Z,15.58
2023-05-05T09:08:47.105Z,15.25
2023-05-05T09:09:49.929Z,15.43
2023-05-05T09:10:51.946Z,15.47
2023-05-05T09:11:56.009Z,15.28
2023-05-05T09:12:58.163Z,15.38
2023-05-05T09:14:01.815Z,15.46
2023-05-05T09:15:03.979Z,15.47
2023-05-05T09:16:06.200Z,15.37
2023-05-05T09:17:22.745Z,15.75
2023-05-05T09:18:25.001Z,15.30
2023-05-05T09:19:26.786Z,15.84
2023-05-05T09:20:37.028Z,15.85
2023-05-05T09:21:50.450Z,15.34
2023-05-05T09:22:53.258Z,15.46
2023-05-05T09:24:13.376Z,15.74
2023-05-05T09:25:16.926Z,15.50
2023-05-05T09:26:18.706Z,15.58
2023-05-05T09:27:23.670Z,15.94
2023-05-05T09:28:26.071Z,15.47
2023-05-05T09:29:27.859Z,15.87
2023-05-05T09:30:29.793Z,15.57
2023-05-05T09:31:33.294Z,15.42
2023-05-05T09:32:46.037Z,16.02
2023-05-05T09:33:48.226Z,15.73
2023-05-05T09:35:01.080Z,15.71
2023-05-05T09:36:02.970Z,16.00
2023-05-05T09:37:06.223Z,16.14
2023-05-05T09:38:12.403Z,15.65
2023-05-05T09:39:17.366Z,15.68
2023-05-05T09:40:20.709Z,15.93
2023-05-05T09:41:39.651Z,16.08
2023-05-05T09:42:41.696Z,15.93
2023-05-05T09:43:52.066Z,15.65
2023-05-05T09:44:54.637Z,15.51
2023-05-05T09:46:08.459Z,15.67
2023-05-05T09:47:26.153Z,15.66
2023-05-05T09:48:32.298Z,15.67
2023-05-05T09:49:34.307Z,15.71
2023-05-05T09:50:45.223Z,16.15
2023-05-05T09:51:48.145Z,15.84
2023-05-05T09:53:00.729Z,15.69
2023-05-05T09:54:02.637Z,16.27
2023-05-05T09:55:04.702Z,16.04
2023-05-05T09:56:07.071Z,15.81
2023-05-05T09:57:09.463Z,15.82
2023-05-05T09:58:20.325Z,16.15
2023-05-05T09:59:22.859Z,15.88
2023-05-05T10:00:38.687Z,16.25
2023-05-05T10:01:43.388Z,16.24
2023-05-05T10:02:45.492Z,15.56
2023-05-05T10:03:54.071Z,15.95
2023-05-05T10:05:07.225Z,15.81
2023-05-05T10:06:09.105Z,15.97
2023-05-05T10:07:23.099Z,15.78
2023-05-05T10:08:30.743Z,15.86
2023-05-05T10:09:32.761Z,16.00
2023-05-05T10:10:35.271Z,16.10
2023-05-05T10:11:37.141Z,15.92
2023-05-05T10:12:39.719Z,15.50
2023-05-05T10:13:44.589Z,16.08
2023-05-05T10:14:46.594Z,16.12
2023-05-05T10:15:53.970Z,16.08
2023-05-05T10:16:56.034Z,16.07
2023-05-05T10:18:07.372Z,16.04
2023-05-05T10:19:14.311Z,16.18
2023-05-05T10:20:16.523Z,16.10
2023-05-05T10:21:21.665Z,15.74
2023-05-05T10:22:25.051Z,15.90
2023-05-05T10:23:48.974Z,15.91
2023-05-05T10:24:58.528Z,16.16
2023-05-05T10:26:07.072Z,15.77
2023-05-05T10:27:20.228Z,16.29
2023-05-05T10:28:31.500Z,16.36
2023-05-05T10:30:08.478Z,16.12
2023-05-05T10:31:25.194Z,16.42
2023-05-05T10:33:03.404Z,15.98
2023-05-05T10:34:12.322Z,16.37
2023-05-05T10:35:22.024Z,16.27
2023-05-05T10:36:25.614Z,16.06
2023-05-05T10:37:28.935Z,16.76
2023-05-05T10:38:31.815Z,16.41
2023-05-05T10:39:36.713Z,16.64
2023-05-05T10:40:44.296Z,16.17
2023-05-05T10:41:47.428Z,16.18
2023-05-05T10:42:50.960Z,16.13
2023-05-05T10:43:57.710Z,16.41
2023-05-05T10:44:59.600Z,16.17
2023-05-05T10:46:01.909Z,16.56
2023-05-05T10:47:04.604Z,15.89
2023-05-05T10:48:12.898Z,16.13
2023-05-05T10:49:39.703Z,16.60
2023-05-05T10:50:56.842Z,15.89
2023-05-05T10:52:19.992Z,15.81
2023-05-05T10:53:41.411Z,16.40
2023-05-05T10:55:07.152Z,16.20
2023-05-05T10:56:25.395Z,16.29
2023-05-05T10:57:29.518Z,16.12
2023-05-05T10:58:46.933Z,16.62
2023-05-05T10:59:53.385Z,16.28
2023-05-05T11:00:55.194Z,16.49
2023-05-05T11:01:57.406Z,16.54
2023-05-05T11:03:17.835Z,16.45
2023-05-05T11:04:24.832Z,15.86
2023-05-05T11:05:27.178Z,16.20
2023-05-05T11:06:29.593Z,16.16
2023-05-05T11:07:31.632Z,15.94
2023-05-05T11:08:38.488Z,16.53
2023-05-05T11:09:56.094Z,16.31
2023-05-05T11:10:58.315Z,16.06
2023-05-05T11:12:07.249Z,16.45
2023-05-05T11:13:09.035Z,16.31
2023-05-05T11:14:22.375Z,16.75
2023-05-05T11:15:24.193Z,16.31
2023-05-05T11:16:50.580Z,16.86
2023-05-05T11:17:54.300Z,16.69
2023-05-05T11:18:56.243Z,16.26
2023-05-05T11:19:58.030Z,16.65
2023-05-05T11:20:59.779Z,16.21
2023-05-05T11:22:02.365Z,16.14
2023-05-05T11:23:04.635Z,16.89
2023-05-05T11:24:31.288Z,16.64
2023-05-05T11:25:42.199Z,16.40
2023-05-05T11:26:52.866Z,16.38
2023-05-05T11:28:07.081Z,16.19
2023-05-05T11:29:08.901Z,16.53
2023-05-05T11:30:11.756Z,16.22
2023-05-05T11:31:18.386Z,15.99
2023-05-05T11:32:20.371Z,16.24
2023-05-05T11:33:37.828Z,16.38
2023-05-05T11:34:50.056Z,16.29
2023-05-05T11:35:55.965Z,15.85
2023-05-05T11:37:02.330Z,16.06
2023-05-05T11:38:07.856Z,16.04
2023-05-05T11:39:23.303Z,16.06
2023-05-05T11:40:31.623Z,15.99
2023-05-05T11:41:38.902Z,15.51
2023-05-05T11:42:40.858Z,16.00
2023-05-05T11:43:42.958Z,15.83
2023-05-05T11:44:44.893Z,15.93
2023-05-05T11:45:46.717Z,15.59
2023-05-05T11:46:51.536Z,15.42
2023-05-05T11:48:28.616Z,15.43
2023-05-05T11:49:37.652Z,15.30
2023-05-05T11:50:39.739Z,15.59
2023-05-05T11:51:41.693Z,15.66
2023-05-05T11:52:43.602Z,15.40
2023-05-05T11:53:49.730Z,15.49
2023-05-05T11:54:51.694Z,15.68
2023-05-05T11:56:19.721Z,15.40
2023-05-05T11:57:29.173Z,15.63
2023-05-05T11:58:31.124Z,15.26
2023-05-05T11:59:33.784Z,15.43
2023-05-05T12:00:36.575Z,15.78
2023-05-05T12:01:42.318Z,15.28
2023-05-05T12:02:44.334Z,15.39
2023-05-05T12:03:46.478Z,15.72
2023-05-05T12:04:48.950Z,15.39
2023-05-05T12:05:54.916Z,15.61
2023-05-05T12:06:57.885Z,15.14
2023-05-05T12:07:59.925Z,15.82
2023-05-05T12:09:02.327Z,15.99
2023-05-05T12:10:04.480Z,15.71
2023-05-05T12:11:11.255Z,15.77
2023-05-05T12:12:13.724Z,15.48
2023-05-05T12:13:21.715Z,15.68
2023-05-05T12:14:24.624Z,14.97
2023-05-05T12:15:32.846Z,15.64
2023-05-05T12:16:34.739Z,15.84
2023-05-05T12:17:46.121Z,15.49
2023-05-05T12:18:48.081Z,15.49
2023-05-05T12:19:52.796Z,15.65
2023-05-05T12:20:54.722Z,15.63
2023-05-05T12:21:57.220Z,15.65
2023-05-05T12:23:04.011Z,15.33
2023-05-05T12:24:06.442Z,15.23
2023-05-05T12:25:08.812Z,15.16
2023-05-05T12:26:31.300Z,15.44
2023-05-05T12:27:35.319Z,15.16
2023-05-05T12:28:46.600Z,15.47
2023-05-05T12:29:48.735Z,15.20
2023-05-05T12:30:59.684Z,15.01
2023-05-05T12:32:01.650Z,15.47
2023-05-05T12:33:08.048Z,15.25
2023-05-05T12:34:11.177Z,15.10
2023-05-05T12:35:13.766Z,15.46
2023-05-05T12:36:16.482Z,15.25
2023-05-05T12:37:19.269Z,15.58
2023-05-05T12:38:21.353Z,15.64
2023-05-05T12:39:23.143Z,15.09
2023-05-05T12:40:57.160Z,15.67
2023-05-05T12:42:05.486Z,15.65
2023-05-05T12:43:07.275Z,15.48
2023-05-05T12:44:09.077Z,15.71
2023-05-05T12:45:17.811Z,15.80
2023-05-05T12:46:19.749Z,15.38
2023-05-05T12:47:32.428Z,15.87
2023-05-05T12:48:35.848Z,15.47
2023-05-05T12:49:50.376Z,15.84
2023-05-05T12:50:52.421Z,15.65
2023-05-05T12:51:56.156Z,15.83
2023-05-05T12:52:57.943Z,15.35
2023-05-05T12:54:10.733Z,15.21
2023-05-05T12:55:12.898Z,15.66
2023-05-05T12:56:30.176Z,15.43
2023-05-05T12:57:32.054Z,15.79
2023-05-05T12:59:23.271Z,15.84
2023-05-05T13:00:25.772Z,15.83
2023-05-05T13:01:28.809Z,15.42
2023-05-05T13:02:35.015Z,15.82
2023-05-05T13:03:36.979Z,15.89
2023-05-05T13:04:53.078Z,15.60
2023-05-05T13:05:54.886Z,16.02
2023-05-05T13:07:29.045Z,15.75
2023-05-05T13:08:46.109Z,15.72
2023-05-05T13:09:49.738Z,15.75
2023-05-05T13:10:58.792Z,15.61
2023-05-05T13:12:02.912Z,15.38
2023-05-05T13:13:04.710Z,15.79
2023-05-05T13:14:07.707Z,15.59
2023-05-05T13:15:10.270Z,15.81
2023-05-05T13:16:12.213Z,15.79
2023-05-05T13:17:14.487Z,15.73
2023-05-05T13:18:16.438Z,15.60
2023-05-05T13:19:18.305Z,15.84
2023-05-05T13:20:20.054Z,16.04
2023-05-05T13:21:21.935Z,16.17
2023-05-05T13:22:23.720Z,15.76
2023-05-05T13:23:25.898Z,16.00
2023-05-05T13:24:42.412Z,16.57
2023-05-05T13:25:48.837Z,15.74
2023-05-05T13:26:52.109Z,16.20
2023-05-05T13:27:53.891Z,16.09
2023-05-05T13:28:55.937Z,16.43
2023-05-05T13:29:57.800Z,15.82
2023-05-05T13:30:59.785Z,16.14
2023-05-05T13:32:01.792Z,16.39
2023-05-05T13:33:04.242Z,16.39
2023-05-05T13:34:06.172Z,16.20
2023-05-05T13:35:08.893Z,16.46
2023-05-05T13:36:10.992Z,16.64
2023-05-05T13:37:12.871Z,16.62
2023-05-05T13:38:14.624Z,16.41
2023-05-05T13:39:16.410Z,16.55
2023-05-05T13:40:18.339Z,16.29
2023-05-05T13:41:20.152Z,16.89
2023-05-05T13:42:21.955Z,16.42
2023-05-05T13:43:23.861Z,16.27
2023-05-05T13:44:25.742Z,16.62
2023-05-05T13:45:27.545Z,16.61
2023-05-05T13:46:29.381Z,16.32
2023-05-05T13:47:31.288Z,16.69
2023-05-05T13:48:33.086Z,16.67
2023-05-05T13:49:35.890Z,16.06
2023-05-05T13:50:38.024Z,16.30
2023-05-05T13:51:39.922Z,16.91
2023-05-05T13:52:42.084Z,16.37
2023-05-05T13:53:44.096Z,16.53
2023-05-05T13:54:45.970Z,16.71
2023-05-05T13:55:47.885Z,16.63
2023-05-05T13:56:49.782Z,16.79
2023-05-05T13:57:51.727Z,16.52
2023-05-05T13:58:54.383Z,16.15
2023-05-05T13:59:56.364Z,16.56